createdAt,value
2023-01-08T00:01:11.736Z,82.90
2023-01-08T00:03:39.508Z,82.90
2023-01-08T00:06:08.940Z,83.00
2023-01-08T00:08:35.585Z,83.20
2023-01-08T00:11:04.374Z,83.30
2023-01-08T00:13:31.050Z,83.10
2023-01-08T00:16:02.032Z,82.90
2023-01-08T00:18:29.026Z,82.60
2023-01-08T00:20:55.640Z,82.20
2023-01-08T00:23:23.027Z,82.10
2023-01-08T00:25:49.983Z,82.20
2023-01-08T00:28:16.996Z,82.10
2023-01-08T00:30:43.967Z,82.00
2023-01-08T00:33:11.459Z,81.80
2023-01-08T00:35:39.260Z,81.70
2023-01-08T00:38:06.797Z,81.70
2023-01-08T00:40:35.190Z,81.60
2023-01-08T00:43:02.441Z,81.80
2023-01-08T00:45:29.106Z,81.70
2023-01-08T00:47:56.954Z,81.50
2023-01-08T00:50:23.796Z,81.60
2023-01-08T00:52:50.431Z,81.60
2023-01-08T00:55:17.581Z,81.80
2023-01-08T00:57:44.242Z,82.10
2023-01-08T01:00:14.944Z,82.60
2023-01-08T01:02:42.645Z,82.80
2023-01-08T01:05:10.737Z,82.90
2023-01-08T01:07:37.649Z,83.10
2023-01-08T01:10:04.781Z,83.30
2023-01-08T01:12:31.444Z,83.40
2023-01-08T01:14:58.134Z,83.30
2023-01-08T01:17:24.860Z,83.50
2023-01-08T01:19:51.613Z,83.60
2023-01-08T01:22:18.302Z,83.90
2023-01-08T01:24:49.102Z,83.90
2023-01-08T01:27:15.777Z,84.00
2023-01-08T01:29:42.493Z,83.90
2023-01-08T01:32:09.308Z,84.00
2023-01-08T01:34:36.058Z,84.10
2023-01-08T01:37:02.821Z,84.10
2023-01-08T01:39:29.735Z,84.10
2023-01-08T01:41:56.388Z,84.20
2023-01-08T01:44:46.815Z,84.30
2023-01-08T01:47:24.622Z,84.40
2023-01-08T01:50:22.754Z,84.60
2023-01-08T01:53:01.669Z,84.60
2023-01-08T01:55:29.287Z,84.60
2023-01-08T01:58:11.225Z,84.70
2023-01-08T02:00:38.760Z,84.90
2023-01-08T02:03:06.897Z,85.10
2023-01-08T02:05:52.351Z,85.20
2023-01-08T02:08:25.628Z,85.40
2023-01-08T02:10:58.709Z,85.60
2023-01-08T02:13:34.749Z,85.60
2023-01-08T02:16:08.968Z,85.70
2023-01-08T02:18:44.307Z,85.90
2023-01-08T02:21:16.737Z,85.90
2023-01-08T02:23:48.918Z,85.80
2023-01-08T02:26:29.944Z,85.70
2023-01-08T02:29:14.399Z,85.70
2023-01-08T02:31:43.311Z,85.70
2023-01-08T02:34:11.650Z,85.90
2023-01-08T02:36:50.838Z,85.90
2023-01-08T02:39:31.180Z,85.90
2023-01-08T02:42:28.914Z,85.80
2023-01-08T02:44:59.768Z,85.60
2023-01-08T02:47:37.911Z,85.20
2023-01-08T02:50:29.449Z,84.90
2023-01-08T02:53:01.345Z,84.90
2023-01-08T02:55:30.316Z,84.90
2023-01-08T02:57:58.152Z,84.80
2023-01-08T03:00:25.945Z,84.90
2023-01-08T03:03:09.566Z,84.90
2023-01-08T03:05:40.262Z,84.80
2023-01-08T03:08:07.747Z,84.80
2023-01-08T03:10:37.463Z,84.80
2023-01-08T03:13:09.553Z,84.80
2023-01-08T03:15:45.886Z,84.80
2023-01-08T03:18:16.769Z,84.90
2023-01-08T03:20:45.192Z,85.00
2023-01-08T03:23:14.573Z,85.10
2023-01-08T03:25:43.284Z,85.00
2023-01-08T03:28:23.518Z,85.20
2023-01-08T03:30:52.188Z,85.20
2023-01-08T03:33:20.398Z,85.30
2023-01-08T03:35:51.811Z,85.10
2023-01-08T03:38:27.236Z,85.20
2023-01-08T03:41:02.891Z,85.50
2023-01-08T03:43:30.042Z,85.50
2023-01-08T03:46:01.492Z,85.60
2023-01-08T03:48:30.528Z,85.60
2023-01-08T03:50:57.198Z,85.80
2023-01-08T03:53:23.918Z,85.80
2023-01-08T03:55:50.717Z,85.60
2023-01-08T03:58:17.447Z,85.60
2023-01-08T04:00:44.384Z,85.40
2023-01-08T04:03:11.120Z,85.30
2023-01-08T04:05:37.812Z,85.20
2023-01-08T04:08:04.615Z,84.80
2023-01-08T04:10:31.266Z,84.70
2023-01-08T04:12:57.926Z,84.20
2023-01-08T04:15:24.595Z,84.10
2023-01-08T04:17:51.306Z,83.90
2023-01-08T04:20:18.112Z,83.70
2023-01-08T04:22:44.756Z,83.50
2023-01-08T04:25:14.518Z,83.20
2023-01-08T04:27:41.172Z,83.00
2023-01-08T04:30:08.524Z,82.80
2023-01-08T04:32:35.198Z,82.80
2023-01-08T04:35:01.897Z,82.60
2023-01-08T04:37:28.611Z,82.50
2023-01-08T04:39:55.311Z,82.50
2023-01-08T04:42:21.954Z,82.50
2023-01-08T04:44:48.603Z,82.50
2023-01-08T04:47:15.404Z,82.50
2023-01-08T04:49:42.146Z,82.40
2023-01-08T04:52:08.843Z,82.30
2023-01-08T04:54:35.556Z,82.20
2023-01-08T04:57:02.234Z,82.20
2023-01-08T04:59:28.905Z,82.10
2023-01-08T05:01:56.754Z,82.00
2023-01-08T05:04:23.615Z,81.70
2023-01-08T05:06:50.332Z,81.50
2023-01-08T05:09:16.978Z,81.40
2023-01-08T05:11:43.692Z,81.20
2023-01-08T05:14:10.481Z,80.60
2023-01-08T05:16:37.120Z,80.50
2023-01-08T05:19:03.958Z,80.70
2023-01-08T05:21:30.590Z,80.40
2023-01-08T05:23:57.260Z,80.70
2023-01-08T05:26:23.926Z,80.70
2023-01-08T05:28:53.101Z,80.50
2023-01-08T05:31:20.176Z,80.70
2023-01-08T05:33:47.121Z,80.80
2023-01-08T05:36:14.406Z,80.90
2023-01-08T05:38:42.272Z,81.10
2023-01-08T05:41:10.203Z,81.20
2023-01-08T05:43:37.255Z,81.30
2023-01-08T05:46:05.043Z,81.40
2023-01-08T05:48:34.014Z,81.60
2023-01-08T05:51:01.767Z,81.70
2023-01-08T05:53:28.482Z,81.80
2023-01-08T05:56:02.718Z,82.10
2023-01-08T05:58:29.782Z,82.30
2023-01-08T06:01:06.720Z,82.50
2023-01-08T06:03:33.971Z,82.50
2023-01-08T06:06:05.545Z,82.50
2023-01-08T06:08:32.764Z,82.60
2023-01-08T06:11:06.215Z,82.60
2023-01-08T06:13:34.674Z,82.50
2023-01-08T06:16:02.473Z,82.60
2023-01-08T06:18:32.543Z,82.60
2023-01-08T06:20:59.464Z,82.60
2023-01-08T06:23:33.742Z,82.50
2023-01-08T06:26:02.284Z,82.50
2023-01-08T06:28:32.873Z,82.50
2023-01-08T06:31:06.448Z,82.50
2023-01-08T06:33:33.560Z,82.60
2023-01-08T06:36:04.820Z,82.60
2023-01-08T06:38:36.653Z,82.70
2023-01-08T06:41:05.149Z,82.90
2023-01-08T06:43:32.955Z,83.10
2023-01-08T06:46:06.510Z,83.30
2023-01-08T06:48:35.124Z,83.30
2023-01-08T06:51:03.336Z,83.40
2023-01-08T06:53:30.272Z,83.50
2023-01-08T06:55:58.548Z,83.30
2023-01-08T06:58:26.712Z,83.40
2023-01-08T07:00:53.504Z,83.40
2023-01-08T07:03:24.551Z,83.50
2023-01-08T07:05:51.295Z,83.30
2023-01-08T07:08:18.594Z,83.40
2023-01-08T07:10:49.823Z,83.50
2023-01-08T07:13:16.503Z,83.60
2023-01-08T07:15:44.271Z,83.60
2023-01-08T07:18:20.278Z,84.00
2023-01-08T07:20:49.778Z,84.20
2023-01-08T07:23:16.592Z,84.70
2023-01-08T07:25:43.304Z,84.90
2023-01-08T07:28:12.956Z,85.30
2023-01-08T07:30:39.915Z,85.40
2023-01-08T07:33:07.703Z,85.80
2023-01-08T07:35:40.644Z,85.70
2023-01-08T07:38:14.579Z,85.90
2023-01-08T07:40:41.279Z,86.20
2023-01-08T07:43:12.340Z,86.30
2023-01-08T07:45:39.615Z,86.40
2023-01-08T07:48:06.570Z,86.30
2023-01-08T07:50:33.355Z,86.30
2023-01-08T07:53:02.470Z,86.20
2023-01-08T07:55:30.579Z,86.10
2023-01-08T07:57:57.568Z,86.10
2023-01-08T08:00:24.413Z,86.40
2023-01-08T08:02:51.281Z,86.60
2023-01-08T08:05:47.425Z,86.70
2023-01-08T08:08:19.886Z,86.80
2023-01-08T08:10:47.052Z,87.10
2023-01-08T08:13:13.752Z,87.40
2023-01-08T08:15:41.292Z,87.40
2023-01-08T08:18:08.236Z,87.70
2023-01-08T08:20:35.248Z,88.00
2023-01-08T08:23:10.760Z,88.20
2023-01-08T08:25:37.510Z,88.40
2023-01-08T08:28:05.118Z,88.60
2023-01-08T08:30:33.750Z,88.70
2023-01-08T08:33:06.069Z,88.80
2023-01-08T08:35:35.590Z,89.10
2023-01-08T08:38:04.930Z,89.20
2023-01-08T08:40:31.774Z,89.20
2023-01-08T08:43:00.679Z,89.40
2023-01-08T08:45:28.205Z,89.30
2023-01-08T08:47:55.197Z,89.30
2023-01-08T08:51:29.142Z,89.30
2023-01-08T08:53:55.789Z,89.40
2023-01-08T08:56:36.666Z,89.60
2023-01-08T08:59:04.102Z,89.60
2023-01-08T09:01:33.983Z,89.60
2023-01-08T09:04:00.730Z,89.70
2023-01-08T09:06:27.719Z,89.70
2023-01-08T09:08:55.132Z,89.70
2023-01-08T09:11:21.947Z,89.70
2023-01-08T09:13:48.677Z,89.80
2023-01-08T09:16:18.580Z,89.80
2023-01-08T09:18:45.603Z,89.80
2023-01-08T09:21:12.299Z,89.70
2023-01-08T09:23:39.596Z,89.50
2023-01-08T09:26:06.334Z,89.60
2023-01-08T09:28:33.291Z,89.60
2023-01-08T09:31:03.658Z,89.60
2023-01-08T09:33:59.368Z,89.70
2023-01-08T09:36:26.123Z,89.70
2023-01-08T09:38:52.828Z,89.50
2023-01-08T09:41:32.656Z,89.60
2023-01-08T09:44:00.877Z,89.60
2023-01-08T09:46:30.993Z,89.70
2023-01-08T09:49:06.624Z,89.70
2023-01-08T09:51:38.253Z,89.70
2023-01-08T09:54:07.461Z,89.60
2023-01-08T09:56:35.270Z,89.50
2023-01-08T09:59:04.332Z,89.30
2023-01-08T10:01:36.880Z,89.40
2023-01-08T10:04:06.573Z,89.40
2023-01-08T10:06:37.398Z,89.20
2023-01-08T10:09:05.474Z,88.90
2023-01-08T10:11:42.113Z,88.70
2023-01-08T10:14:22.192Z,88.90
2023-01-08T10:16:53.897Z,88.90
2023-01-08T10:19:23.574Z,88.70
2023-01-08T10:21:51.112Z,88.70
2023-01-08T10:24:19.269Z,88.70
2023-01-08T10:26:47.773Z,88.70
2023-01-08T10:29:19.006Z,88.20
2023-01-08T10:31:50.078Z,88.40
2023-01-08T10:34:41.541Z,88.20
2023-01-08T10:37:17.980Z,88.30
2023-01-08T10:39:52.223Z,88.10
2023-01-08T10:42:20.762Z,88.00
2023-01-08T10:45:01.880Z,87.50
2023-01-08T10:47:33.611Z,87.60
2023-01-08T10:50:02.542Z,87.50
2023-01-08T10:52:36.295Z,87.20
2023-01-08T10:55:21.998Z,87.00
2023-01-08T10:58:00.085Z,86.90
2023-01-08T11:00:35.760Z,86.80
2023-01-08T11:03:30.729Z,86.90
2023-01-08T11:05:58.112Z,87.00
2023-01-08T11:08:25.997Z,87.10
2023-01-08T11:10:58.155Z,87.00
2023-01-08T11:13:28.419Z,87.00
2023-01-08T11:16:06.497Z,87.10
2023-01-08T11:18:47.569Z,87.20
2023-01-08T11:21:26.849Z,87.20
2023-01-08T11:24:12.558Z,87.00
2023-01-08T11:26:41.226Z,87.00
2023-01-08T11:29:45.709Z,87.10
2023-01-08T11:32:39.848Z,87.30
2023-01-08T11:35:15.068Z,87.40
2023-01-08T11:37:50.718Z,87.30
2023-01-08T11:40:44.510Z,87.10
2023-01-08T11:43:21.740Z,87.10
2023-01-08T11:46:26.121Z,86.90
2023-01-08T11:49:02.119Z,87.10
2023-01-08T11:51:41.133Z,87.20
2023-01-08T11:54:26.153Z,87.30
2023-01-08T11:57:39.112Z,87.20
2023-01-08T12:00:33.747Z,87.20
2023-01-08T12:03:15.389Z,87.30
2023-01-08T12:05:48.252Z,87.10
2023-01-08T12:08:52.501Z,87.40
2023-01-08T12:11:31.408Z,87.40
2023-01-08T12:14:25.009Z,87.40
2023-01-08T12:17:09.667Z,87.30
2023-01-08T12:19:54.927Z,87.20
2023-01-08T12:22:59.333Z,87.00
2023-01-08T12:26:13.705Z,87.20
2023-01-08T12:29:00.765Z,86.90
2023-01-08T12:32:05.711Z,87.10
2023-01-08T12:34:38.264Z,86.80
2023-01-08T12:37:37.157Z,86.80
2023-01-08T12:40:22.139Z,86.40
2023-01-08T12:42:59.960Z,86.40
2023-01-08T12:45:30.525Z,86.70
2023-01-08T12:48:02.936Z,86.60
2023-01-08T12:50:44.695Z,86.40
2023-01-08T12:53:31.979Z,86.70
2023-01-08T12:56:08.124Z,86.90
2023-01-08T12:59:11.196Z,86.60
2023-01-08T13:02:04.884Z,86.60
2023-01-08T13:04:45.823Z,86.50
2023-01-08T13:07:26.451Z,86.30
2023-01-08T13:10:18.983Z,85.90
2023-01-08T13:12:51.132Z,86.00
2023-01-08T13:15:26.417Z,86.00
2023-01-08T13:17:57.648Z,85.80
2023-01-08T13:20:30.449Z,86.10
2023-01-08T13:23:05.497Z,86.00
2023-01-08T13:25:38.083Z,86.10
2023-01-08T13:28:39.077Z,85.80
2023-01-08T13:31:21.193Z,86.10
2023-01-08T13:33:49.196Z,86.00
2023-01-08T13:36:23.042Z,85.70
2023-01-08T13:39:03.244Z,85.80
2023-01-08T13:41:35.911Z,85.80
2023-01-08T13:44:22.161Z,85.70
2023-01-08T13:46:56.248Z,85.70
2023-01-08T13:49:33.771Z,85.60
2023-01-08T13:52:00.654Z,85.50
2023-01-08T13:54:35.507Z,85.20
2023-01-08T13:57:14.483Z,85.40
2023-01-08T13:59:49.133Z,85.70
2023-01-08T14:02:24.016Z,85.50
2023-01-08T14:04:51.735Z,85.70
2023-01-08T14:07:18.514Z,86.00
2023-01-08T14:09:49.291Z,86.10
2023-01-08T14:12:24.570Z,86.00
2023-01-08T14:14:59.004Z,85.70
2023-01-08T14:17:30.962Z,85.90
2023-01-08T14:19:58.714Z,85.80
2023-01-08T14:22:34.823Z,85.70
2023-01-08T14:25:07.665Z,86.10
2023-01-08T14:27:35.075Z,86.00
2023-01-08T14:30:01.854Z,85.90
2023-01-08T14:32:30.870Z,85.70
2023-01-08T14:35:00.394Z,85.70
2023-01-08T14:37:32.230Z,85.70
2023-01-08T14:39:58.859Z,85.10
2023-01-08T14:42:42.136Z,84.70
2023-01-08T14:45:26.567Z,84.70
2023-01-08T14:47:56.448Z,84.80
2023-01-08T14:50:29.322Z,85.00
2023-01-08T14:53:19.039Z,85.20
2023-01-08T14:55:50.399Z,85.40
2023-01-08T14:58:36.372Z,85.60
2023-01-08T15:01:08.951Z,85.90
2023-01-08T15:03:42.631Z,86.00
2023-01-08T15:06:13.982Z,86.20
2023-01-08T15:08:42.832Z,86.20
2023-01-08T15:11:24.483Z,86.30
2023-01-08T15:13:53.243Z,86.50
2023-01-08T15:16:35.289Z,86.50
2023-01-08T15:19:19.900Z,86.60
2023-01-08T15:21:52.402Z,86.60
2023-01-08T15:24:27.940Z,86.60
2023-01-08T15:26:55.278Z,86.70
2023-01-08T15:29:33.180Z,86.90
2023-01-08T15:32:22.123Z,86.90
2023-01-08T15:34:48.856Z,86.90
2023-01-08T15:37:16.020Z,86.80
2023-01-08T15:39:43.431Z,86.20
2023-01-08T15:42:39.423Z,86.10
2023-01-08T15:45:12.636Z,86.20
2023-01-08T15:47:39.296Z,86.10
2023-01-08T15:50:06.863Z,85.80
2023-01-08T15:52:34.374Z,85.90
2023-01-08T15:55:01.408Z,85.90
2023-01-08T15:57:31.301Z,85.70
2023-01-08T15:59:58.972Z,85.50
2023-01-08T16:02:26.433Z,85.50
2023-01-08T16:04:54.384Z,85.20
2023-01-08T16:07:22.777Z,85.50
2023-01-08T16:09:49.531Z,85.80
2023-01-08T16:12:16.206Z,85.60
2023-01-08T16:14:44.884Z,85.80
2023-01-08T16:17:11.546Z,85.90
2023-01-08T16:19:38.400Z,85.90
2023-01-08T16:22:05.175Z,85.60
2023-01-08T16:24:31.974Z,85.60
2023-01-08T16:26:59.783Z,85.50
2023-01-08T16:29:27.845Z,85.60
2023-01-08T16:31:55.412Z,85.70
2023-01-08T16:34:22.139Z,85.40
2023-01-08T16:36:49.312Z,85.60
2023-01-08T16:39:16.092Z,85.50
2023-01-08T16:41:47.660Z,85.60
2023-01-08T16:44:28.407Z,85.80
2023-01-08T16:46:55.892Z,85.70
2023-01-08T16:49:22.841Z,85.70
2023-01-08T16:51:49.594Z,85.60
2023-01-08T16:54:17.250Z,85.60
2023-01-08T16:56:44.498Z,85.60
2023-01-08T16:59:22.734Z,85.40
2023-01-08T17:01:51.442Z,85.50
2023-01-08T17:04:18.216Z,85.30
2023-01-08T17:06:46.963Z,85.50
2023-01-08T17:09:14.574Z,85.70
2023-01-08T17:11:41.794Z,85.90
2023-01-08T17:14:10.037Z,85.80
2023-01-08T17:16:36.983Z,85.90
2023-01-08T17:19:04.010Z,86.00
2023-01-08T17:21:33.733Z,85.90
2023-01-08T17:24:00.444Z,85.80
2023-01-08T17:26:27.334Z,85.90
2023-01-08T17:28:54.821Z,86.00
2023-01-08T17:31:21.704Z,86.00
2023-01-08T17:33:50.273Z,86.10
2023-01-08T17:36:22.994Z,86.20
2023-01-08T17:38:50.640Z,86.20
2023-01-08T17:41:37.930Z,85.90
2023-01-08T17:44:14.532Z,85.60
2023-01-08T17:46:44.426Z,85.60
2023-01-08T17:49:13.485Z,85.60
2023-01-08T17:51:41.525Z,85.80
2023-01-08T17:54:14.285Z,85.80
2023-01-08T17:56:41.229Z,85.80
2023-01-08T17:59:08.228Z,85.80
2023-01-08T18:01:36.621Z,85.90
2023-01-08T18:04:03.541Z,85.80
2023-01-08T18:06:30.383Z,85.70
2023-01-08T18:08:57.198Z,85.70
2023-01-08T18:11:25.299Z,85.90
2023-01-08T18:13:59.767Z,85.90
2023-01-08T18:16:27.669Z,85.90
2023-01-08T18:18:56.386Z,85.80
2023-01-08T18:21:23.711Z,85.80
2023-01-08T18:23:50.504Z,85.70
2023-01-08T18:26:19.137Z,85.70
2023-01-08T18:28:58.227Z,85.70
2023-01-08T18:31:25.061Z,85.70
2023-01-08T18:33:55.255Z,85.80
2023-01-08T18:36:22.820Z,85.80
2023-01-08T18:38:57.347Z,85.70
2023-01-08T18:41:42.583Z,85.70
2023-01-08T18:44:10.783Z,85.70
2023-01-08T18:46:38.664Z,85.80
2023-01-08T18:49:05.475Z,85.50
2023-01-08T18:51:32.433Z,85.70
2023-01-08T18:54:04.270Z,85.40
2023-01-08T18:56:33.411Z,85.40
2023-01-08T18:59:00.944Z,85.50
2023-01-08T19:01:28.727Z,85.50
2023-01-08T19:03:55.925Z,85.60
2023-01-08T19:06:23.436Z,85.80
2023-01-08T19:08:50.112Z,85.80
2023-01-08T19:11:17.007Z,86.00
2023-01-08T19:13:43.737Z,86.10
2023-01-08T19:16:14.370Z,86.10
2023-01-08T19:18:45.180Z,86.00
2023-01-08T19:21:14.651Z,86.00
2023-01-08T19:23:41.467Z,86.00
2023-01-08T19:26:08.664Z,86.10
2023-01-08T19:28:35.831Z,86.20
2023-01-08T19:31:03.307Z,86.20
2023-01-08T19:33:30.050Z,86.20
2023-01-08T19:36:12.790Z,86.30
2023-01-08T19:38:42.788Z,86.40
2023-01-08T19:41:29.621Z,86.50
2023-01-08T19:43:57.017Z,86.50
2023-01-08T19:46:24.118Z,86.70
2023-01-08T19:48:51.218Z,86.90
2023-01-08T19:51:18.636Z,86.80
2023-01-08T19:53:45.342Z,87.00
2023-01-08T19:56:14.715Z,87.00
2023-01-08T19:58:41.758Z,87.20
2023-01-08T20:01:14.088Z,87.30
2023-01-08T20:03:41.980Z,87.20
2023-01-08T20:06:11.588Z,87.30
2023-01-08T20:08:38.351Z,87.30
2023-01-08T20:11:10.740Z,87.30
2023-01-08T20:13:38.037Z,87.40
2023-01-08T20:16:06.842Z,87.30
2023-01-08T20:18:34.867Z,87.40
2023-01-08T20:21:07.595Z,87.50
2023-01-08T20:23:38.134Z,87.50
2023-01-08T20:26:07.540Z,87.70
2023-01-08T20:28:36.967Z,87.90
2023-01-08T20:31:12.120Z,88.00
2023-01-08T20:33:55.960Z,88.00
2023-01-08T20:36:51.974Z,88.00
2023-01-08T20:39:19.179Z,88.00
2023-01-08T20:41:55.492Z,88.00
2023-01-08T20:44:30.740Z,87.90
2023-01-08T20:46:58.386Z,87.80
2023-01-08T20:49:26.661Z,87.80
2023-01-08T20:51:59.126Z,87.70
2023-01-08T20:54:27.093Z,87.70
2023-01-08T20:56:55.949Z,87.50
2023-01-08T20:59:24.186Z,87.50
2023-01-08T21:01:51.381Z,87.50
2023-01-08T21:04:19.095Z,87.60
2023-01-08T21:06:45.867Z,87.80
2023-01-08T21:09:13.988Z,87.80
2023-01-08T21:11:41.073Z,87.90
2023-01-08T21:14:08.999Z,87.90
2023-01-08T21:16:36.777Z,88.10
2023-01-08T21:19:03.860Z,88.10
2023-01-08T21:21:34.072Z,88.20
2023-01-08T21:24:08.670Z,88.20
2023-01-08T21:26:36.878Z,88.30
2023-01-08T21:29:05.958Z,88.40
2023-01-08T21:31:33.432Z,88.40
2023-01-08T21:34:01.609Z,88.40
2023-01-08T21:36:31.192Z,88.50
2023-01-08T21:38:59.679Z,88.50
2023-01-08T21:41:45.971Z,88.50
2023-01-08T21:44:34.771Z,88.60
2023-01-08T21:47:03.364Z,88.50
2023-01-08T21:49:30.313Z,88.20
2023-01-08T21:52:16.255Z,88.50
2023-01-08T21:54:42.989Z,88.60
2023-01-08T21:57:10.201Z,88.70
2023-01-08T21:59:37.254Z,88.70
2023-01-08T22:02:05.724Z,88.90
2023-01-08T22:04:33.228Z,88.90
2023-01-08T22:06:59.952Z,89.00
2023-01-08T22:09:26.760Z,89.00
2023-01-08T22:11:55.384Z,89.10
2023-01-08T22:14:22.080Z,89.10
2023-01-08T22:16:48.771Z,89.50
2023-01-08T22:19:15.445Z,89.50
2023-01-08T22:21:42.181Z,89.90
2023-01-08T22:24:08.897Z,90.00
2023-01-08T22:26:35.697Z,89.90
2023-01-08T22:29:03.653Z,90.00
2023-01-08T22:31:30.376Z,89.90
2023-01-08T22:33:59.334Z,89.90
2023-01-08T22:36:26.072Z,89.80
2023-01-08T22:38:52.808Z,89.60
2023-01-08T22:41:22.289Z,89.70
2023-01-08T22:43:55.742Z,89.70
2023-01-08T22:46:23.390Z,89.60
2023-01-08T22:48:50.210Z,89.70
2023-01-08T22:51:16.915Z,89.70
2023-01-08T22:53:43.773Z,89.70
2023-01-08T22:56:12.361Z,89.40
2023-01-08T22:58:41.311Z,89.60
2023-01-08T23:01:13.707Z,89.80
2023-01-08T23:03:42.967Z,89.90
2023-01-08T23:06:15.249Z,90.20
2023-01-08T23:08:43.418Z,90.40
2023-01-08T23:11:12.432Z,90.40
2023-01-08T23:13:39.772Z,90.40
2023-01-08T23:16:08.488Z,90.60
2023-01-08T23:18:36.006Z,90.50
2023-01-08T23:21:06.980Z,90.40
2023-01-08T23:23:34.049Z,90.30
2023-01-08T23:26:06.083Z,90.30
2023-01-08T23:28:33.335Z,90.20
2023-01-08T23:31:00.084Z,90.30
2023-01-08T23:33:27.149Z,90.10
2023-01-08T23:35:53.852Z,90.20
2023-01-08T23:38:20.602Z,90.20
2023-01-08T23:40:47.597Z,90.30
2023-01-08T23:43:14.279Z,90.40
2023-01-08T23:45:41.060Z,90.30
2023-01-08T23:48:07.912Z,90.30
2023-01-08T23:50:35.629Z,90.50
2023-01-08T23:53:02.369Z,90.60
2023-01-08T23:55:29.065Z,90.60
2023-01-08T23:57:56.158Z,90.70
